Time;durP1;ratioP1;P1;durP2;ratioP2;P2;SDS_P1;SDS_P2;PMS_P1;PMS_P2;Temp;Humidity;BMP_temperature;BMP_pressure;BME280_temperature;BME280_humidity;BME280_pressure;Samples;Min_cycle;Max_cycle;Signal;HPM_P1;HPM_P2
2022/03/25 00:01:15;;;;;;;14.00;9.85;;;;;;;8.72;30.24;100906.38;5002241;28;20121;-73
2022/03/25 00:03:41;;;;;;;12.00;8.02;;;;;;;8.77;30.09;100911.69;5002644;28;20048;-71
2022/03/25 00:06:07;;;;;;;15.70;10.20;;;;;;;8.67;30.55;100915.88;5003519;28;21155;-72
2022/03/25 00:08:33;;;;;;;16.65;8.93;;;;;;;8.99;30.40;100933.81;5000679;28;20125;-72
2022/03/25 00:10:58;;;;;;;21.17;8.40;;;;;;;8.87;30.82;100930.19;5000834;28;20452;-72
2022/03/25 00:13:24;;;;;;;17.40;9.27;;;;;;;8.88;30.58;100924.06;5001465;28;20038;-72
2022/03/25 00:15:50;;;;;;;11.57;7.40;;;;;;;9.02;30.78;100949.56;5000334;28;20038;-71
2022/03/25 00:18:15;;;;;;;21.33;8.43;;;;;;;9.11;30.95;100956.66;5000204;28;20470;-72
2022/03/25 00:20:41;;;;;;;14.52;8.60;;;;;;;8.99;30.65;100971.34;5001151;28;20060;-71
2022/03/25 00:23:06;;;;;;;15.80;7.78;;;;;;;9.21;30.63;100946.34;4999759;28;20134;-71
2022/03/25 00:25:32;;;;;;;13.70;8.50;;;;;;;9.11;30.68;100930.50;5001470;28;20042;-72
2022/03/25 00:27:58;;;;;;;20.25;8.32;;;;;;;8.76;31.24;100967.50;5002211;28;20417;-72
2022/03/25 00:30:23;;;;;;;15.90;9.60;;;;;;;8.95;31.00;100927.66;5002804;28;20033;-73
2022/03/25 00:32:49;;;;;;;10.80;7.75;;;;;;;9.21;31.13;100961.19;5002554;28;20045;-72
2022/03/25 00:35:17;;;;;;;16.23;8.95;;;;;;;8.43;31.84;100930.34;5000466;28;20069;-72
2022/03/25 00:37:42;;;;;;;15.85;10.20;;;;;;;9.14;31.70;100972.44;5000165;28;20041;-72
2022/03/25 00:40:08;;;;;;;10.68;7.03;;;;;;;9.12;31.73;100972.41;5000905;28;20056;-72
2022/03/25 00:42:35;;;;;;;13.40;7.97;;;;;;;8.88;32.33;100963.31;5002939;28;20038;-72
2022/03/25 00:45:05;;;;;;;15.93;7.65;;;;;;;8.84;32.05;100948.41;5001530;28;20066;-71
2022/03/25 00:47:31;;;;;;;18.48;7.60;;;;;;;8.99;32.03;100975.69;4999484;28;20057;-72
2022/03/25 00:49:57;;;;;;;12.27;8.13;;;;;;;8.67;32.36;100944.66;5002121;28;20091;-72
2022/03/25 00:52:23;;;;;;;10.80;8.23;;;;;;;8.87;32.31;100939.72;5001567;28;20081;-73
2022/03/25 00:54:50;;;;;;;13.18;7.32;;;;;;;8.66;33.01;100951.66;5000141;28;20107;-72
2022/03/25 00:57:16;;;;;;;12.85;6.90;;;;;;;8.53;33.23;100974.94;5003968;28;20036;-74
2022/03/25 00:59:42;;;;;;;31.13;10.70;;;;;;;8.54;33.36;100980.19;5002646;28;20513;-72
2022/03/25 01:02:08;;;;;;;15.63;7.93;;;;;;;8.73;33.10;100975.28;5001931;28;20070;-72
2022/03/25 01:04:34;;;;;;;17.10;7.93;;;;;;;8.71;33.28;100966.50;5004280;28;20096;-72
2022/03/25 01:06:59;;;;;;;13.57;8.65;;;;;;;8.77;33.22;100977.97;5007370;28;20045;-73
2022/03/25 01:09:25;;;;;;;13.05;7.72;;;;;;;8.62;33.46;100954.19;5006263;28;20533;-73
2022/03/25 01:11:51;;;;;;;10.73;6.55;;;;;;;8.73;33.28;100943.88;5007082;28;20038;-73
2022/03/25 01:14:16;;;;;;;18.23;9.25;;;;;;;8.73;33.33;100939.50;4988960;28;20041;-72
2022/03/25 01:16:42;;;;;;;11.73;8.00;;;;;;;9.05;33.09;100991.50;5001658;28;20049;-73
2022/03/25 01:19:07;;;;;;;21.10;9.32;;;;;;;9.01;33.29;100974.88;5001487;28;20042;-72
2022/03/25 01:21:33;;;;;;;11.02;7.47;;;;;;;8.88;33.62;100979.03;5001318;28;20037;-73
2022/03/25 01:23:59;;;;;;;18.70;7.90;;;;;;;8.88;33.58;100958.09;5001422;28;20030;-72
2022/03/25 01:26:26;;;;;;;10.50;6.93;;;;;;;8.87;33.36;100948.50;4967914;28;20071;-74
2022/03/25 01:28:52;;;;;;;13.20;7.30;;;;;;;8.98;33.48;100976.56;5001994;28;20038;-73
2022/03/25 01:31:19;;;;;;;11.27;8.30;;;;;;;8.75;33.87;100947.41;5002407;28;20366;-72
2022/03/25 01:33:44;;;;;;;13.73;9.55;;;;;;;8.75;33.88;100935.19;4999810;28;20026;-72
2022/03/25 01:36:10;;;;;;;16.30;6.93;;;;;;;8.94;34.13;100966.88;4998120;28;20504;-73
2022/03/25 01:38:36;;;;;;;25.02;8.25;;;;;;;8.74;33.74;100946.53;5001176;28;20054;-72
2022/03/25 01:41:03;;;;;;;11.85;7.65;;;;;;;8.59;34.02;100923.63;4999053;28;20042;-73
2022/03/25 01:43:29;;;;;;;12.40;7.90;;;;;;;8.62;34.07;100941.97;5000569;28;20038;-71
2022/03/25 01:45:55;;;;;;;16.40;8.45;;;;;;;8.73;34.29;100946.50;5001077;28;20851;-73
2022/03/25 01:48:21;;;;;;;14.88;8.82;;;;;;;8.24;34.94;100925.59;5002573;28;20053;-72
2022/03/25 01:50:47;;;;;;;12.27;8.02;;;;;;;8.26;35.02;100936.94;5000391;28;20030;-73
2022/03/25 01:53:17;;;;;;;13.32;7.57;;;;;;;8.60;34.79;100966.34;5001684;28;20049;-73
2022/03/25 01:55:56;;;;;;;13.68;8.20;;;;;;;8.56;34.64;100936.63;4999255;28;20050;-74
2022/03/25 01:58:23;;;;;;;11.93;8.50;;;;;;;8.50;35.20;100933.94;5000982;28;20042;-74
2022/03/25 02:00:49;;;;;;;13.00;8.18;;;;;;;8.51;35.93;100969.69;5000291;28;20470;-73
2022/03/25 02:03:16;;;;;;;13.82;6.95;;;;;;;8.46;35.33;100937.34;4998302;28;20030;-73
2022/03/25 02:05:48;;;;;;;10.80;7.53;;;;;;;8.46;35.30;100968.72;5001185;28;20266;-74
2022/03/25 02:08:15;;;;;;;14.07;8.25;;;;;;;8.37;35.71;100965.91;5000663;28;20100;-73
2022/03/25 02:10:41;;;;;;;11.10;7.28;;;;;;;8.46;35.50;100976.56;5004776;28;20054;-72
2022/03/25 02:13:11;;;;;;;13.32;8.23;;;;;;;8.33;35.78;100978.03;5004625;28;20425;-73
2022/03/25 02:15:39;;;;;;;16.63;7.45;;;;;;;8.43;35.67;100960.84;5001341;28;20052;-73
2022/03/25 02:18:08;;;;;;;10.68;7.20;;;;;;;8.58;36.08;100970.66;5001587;28;20046;-73
2022/03/25 02:20:34;;;;;;;16.90;8.35;;;;;;;8.27;35.90;100943.09;5001121;28;20402;-72
2022/03/25 02:23:00;;;;;;;13.38;7.35;;;;;;;8.08;36.71;100986.25;5000563;28;20038;-73
2022/03/25 02:25:26;;;;;;;13.10;8.63;;;;;;;8.08;36.62;100992.41;5000273;28;20057;-73
2022/03/25 02:27:53;;;;;;;10.80;7.43;;;;;;;7.95;36.49;100951.19;4999495;28;20141;-73
2022/03/25 02:30:20;;;;;;;15.05;8.57;;;;;;;7.86;37.29;100979.75;5001551;28;20026;-73
2022/03/25 02:32:46;;;;;;;14.25;9.13;;;;;;;8.27;36.13;100991.00;5000071;28;20053;-73
2022/03/25 02:35:11;;;;;;;12.68;7.60;;;;;;;8.09;36.62;100964.53;4995274;28;20053;-73
2022/03/25 02:37:37;;;;;;;12.15;7.47;;;;;;;8.35;36.44;100986.78;5000225;28;20443;-72
2022/03/25 02:40:03;;;;;;;14.35;8.25;;;;;;;7.85;36.69;100976.25;5000581;28;20451;-74
2022/03/25 02:42:30;;;;;;;13.85;7.57;;;;;;;8.44;36.53;100996.59;5000116;28;20038;-73
2022/03/25 02:44:57;;;;;;;16.05;8.15;;;;;;;8.11;36.76;100973.28;4998676;28;20176;-71
2022/03/25 02:47:22;;;;;;;14.85;9.38;;;;;;;8.12;36.53;100977.66;4999311;28;20135;-74
2022/03/25 02:49:48;;;;;;;14.18;8.38;;;;;;;8.08;36.80;100988.88;4983114;28;20498;-72
2022/03/25 02:52:13;;;;;;;13.98;8.35;;;;;;;8.03;36.93;100978.38;5000637;28;20509;-73
2022/03/25 02:54:39;;;;;;;20.35;9.73;;;;;;;8.03;36.66;100979.25;5003111;28;20026;-70
2022/03/25 02:57:05;;;;;;;18.38;9.52;;;;;;;8.10;36.94;100984.56;5001353;28;20181;-73
2022/03/25 02:59:32;;;;;;;19.13;9.02;;;;;;;8.19;37.39;101000.44;4997130;28;20046;-71
2022/03/25 03:01:57;;;;;;;15.32;7.75;;;;;;;8.09;36.70;100973.25;5000073;28;20127;-74
2022/03/25 03:04:23;;;;;;;15.82;8.20;;;;;;;8.04;36.73;100978.38;4999621;28;20453;-71
2022/03/25 03:06:48;;;;;;;18.45;7.95;;;;;;;7.77;37.19;100969.97;4998041;28;20057;-70
2022/03/25 03:09:14;;;;;;;14.85;7.65;;;;;;;8.06;37.07;100975.81;4998970;28;20041;-73
2022/03/25 03:11:40;;;;;;;22.92;8.63;;;;;;;8.25;36.96;101011.88;5000147;28;20459;-73
2022/03/25 03:14:05;;;;;;;20.25;9.88;;;;;;;7.93;37.50;100979.91;4997923;28;20034;-72
2022/03/25 03:16:31;;;;;;;17.85;9.07;;;;;;;7.97;37.37;100997.41;4998966;28;20398;-71
2022/03/25 03:18:57;;;;;;;17.45;9.55;;;;;;;7.95;37.38;100972.97;4993938;28;20485;-74
2022/03/25 03:21:24;;;;;;;14.95;9.60;;;;;;;8.22;37.24;101004.00;5017342;28;20062;-74
2022/03/25 03:23:54;;;;;;;18.08;9.10;;;;;;;8.11;37.50;100974.16;5001519;28;20074;-74
2022/03/25 03:26:20;;;;;;;18.05;9.95;;;;;;;8.11;37.90;100995.06;5002464;28;20045;-73
2022/03/25 03:28:46;;;;;;;14.23;8.88;;;;;;;8.07;37.78;101001.06;5003191;28;20572;-74
2022/03/25 03:31:12;;;;;;;16.65;9.18;;;;;;;8.01;37.72;101004.47;5002942;28;20045;-74
2022/03/25 03:33:38;;;;;;;14.48;8.80;;;;;;;7.70;38.21;100969.00;5004782;28;20038;-73
2022/03/25 03:36:05;;;;;;;14.02;8.63;;;;;;;7.84;38.01;100977.09;4999861;28;20038;-74
2022/03/25 03:38:31;;;;;;;19.30;9.68;;;;;;;7.89;37.71;100979.81;5001351;28;20058;-73
2022/03/25 03:40:59;;;;;;;16.90;8.35;;;;;;;7.98;37.88;100980.91;5002330;28;20081;-73
2022/03/25 03:43:25;;;;;;;13.15;7.72;;;;;;;8.00;38.04;101017.50;5003607;28;20061;-73
2022/03/25 03:45:50;;;;;;;10.80;7.90;;;;;;;7.84;38.14;100990.16;5003855;28;20054;-73
2022/03/25 03:48:16;;;;;;;14.90;9.43;;;;;;;7.85;38.63;101009.34;5004074;28;20453;-73
2022/03/25 03:50:41;;;;;;;17.73;9.98;;;;;;;7.82;38.49;101026.72;5004349;28;20101;-72
2022/03/25 03:53:07;;;;;;;15.13;9.38;;;;;;;7.53;38.46;100983.41;5003001;28;20054;-72
2022/03/25 03:55:33;;;;;;;11.82;8.73;;;;;;;7.60;38.66;100987.91;5002998;28;20041;-73
2022/03/25 03:57:59;;;;;;;21.77;9.02;;;;;;;7.49;38.92;100981.59;5003246;28;20034;-72
2022/03/25 04:00:24;;;;;;;15.00;10.23;;;;;;;7.38;38.65;100997.03;5003371;28;20105;-72
2022/03/25 04:02:50;;;;;;;19.67;10.38;;;;;;;7.48;39.31;100995.50;5002244;28;20049;-73
2022/03/25 04:05:16;;;;;;;17.17;9.75;;;;;;;7.78;38.76;101010.94;5003929;28;20038;-73
2022/03/25 04:07:46;;;;;;;23.05;9.52;;;;;;;7.60;39.13;100993.16;5002462;28;20152;-72
2022/03/25 04:10:13;;;;;;;25.65;10.80;;;;;;;7.79;38.77;101013.56;5001535;28;20103;-72
2022/03/25 04:12:38;;;;;;;18.95;8.55;;;;;;;7.40;39.01;101013.63;5003191;28;20037;-72
2022/03/25 04:15:05;;;;;;;13.82;9.70;;;;;;;7.57;39.63;100999.19;5003543;28;20062;-72
2022/03/25 04:17:31;;;;;;;16.45;9.07;;;;;;;7.87;38.91;101003.31;5000572;28;20165;-72
2022/03/25 04:19:57;;;;;;;13.43;9.27;;;;;;;7.57;39.74;101017.47;5001390;28;20046;-74
2022/03/25 04:22:22;;;;;;;17.10;9.52;;;;;;;7.73;39.56;101012.59;5001859;28;20425;-74
2022/03/25 04:24:48;;;;;;;21.33;9.25;;;;;;;7.44;39.98;100972.78;5002805;28;20116;-74
2022/03/25 04:27:13;;;;;;;13.07;9.27;;;;;;;7.60;39.00;101000.97;5003277;28;20390;-72
2022/03/25 04:29:39;;;;;;;19.83;9.52;;;;;;;7.56;39.83;100988.69;5000537;28;20053;-72
2022/03/25 04:32:07;;;;;;;15.95;10.02;;;;;;;7.69;38.77;100980.28;5004490;28;20060;-73
2022/03/25 04:34:33;;;;;;;14.23;9.38;;;;;;;7.73;40.18;100991.69;5004147;28;20050;-71
2022/03/25 04:36:58;;;;;;;17.60;9.80;;;;;;;7.77;39.57;100997.00;5005770;28;20482;-72
2022/03/25 04:39:23;;;;;;;15.35;9.05;;;;;;;7.79;38.99;101000.50;5005368;28;20390;-72
2022/03/25 04:41:49;;;;;;;21.23;10.48;;;;;;;7.86;39.34;101024.16;5001225;28;20445;-73
2022/03/25 04:44:14;;;;;;;15.90;10.75;;;;;;;8.13;38.89;101029.09;5003339;28;20062;-73
2022/03/25 04:46:40;;;;;;;15.20;9.85;;;;;;;7.61;39.14;101014.09;4999442;28;20033;-71
2022/03/25 04:49:08;;;;;;;14.07;9.70;;;;;;;7.71;39.75;101006.44;5001391;28;20060;-73
2022/03/25 04:51:34;;;;;;;18.13;10.30;;;;;;;8.19;39.07;101030.09;5002049;28;20017;-72
2022/03/25 04:54:00;;;;;;;22.95;11.75;;;;;;;7.89;39.25;100993.78;5002670;28;20141;-75
2022/03/25 04:56:25;;;;;;;25.42;10.57;;;;;;;8.31;38.78;101033.78;5001373;28;20121;-75
2022/03/25 04:58:51;;;;;;;25.50;11.35;;;;;;;8.03;39.28;101041.09;5002281;28;20045;-72
2022/03/25 05:01:16;;;;;;;18.52;11.05;;;;;;;8.15;39.41;101046.56;5001583;28;20080;-74
2022/03/25 05:03:43;;;;;;;21.02;10.15;;;;;;;8.00;39.97;101041.00;5002213;28;20030;-72
2022/03/25 05:06:09;;;;;;;11.82;9.40;;;;;;;7.90;39.86;101031.22;5000855;28;20056;-74
2022/03/25 05:08:34;;;;;;;13.13;9.82;;;;;;;8.25;38.84;101045.88;5001837;28;20038;-74
2022/03/25 05:11:00;;;;;;;18.80;9.65;;;;;;;7.99;39.31;101018.34;5002488;28;20572;-73
2022/03/25 05:13:25;;;;;;;25.85;10.93;;;;;;;7.82;39.86;101033.69;5000266;28;20054;-74
2022/03/25 05:15:51;;;;;;;22.08;10.88;;;;;;;8.17;39.47;101034.41;5001463;28;20030;-72
2022/03/25 05:18:17;;;;;;;15.05;10.88;;;;;;;8.29;39.41;101039.00;5001127;28;20420;-75
2022/03/25 05:20:42;;;;;;;26.60;10.70;;;;;;;7.78;40.23;100998.75;5003052;28;20034;-74
2022/03/25 05:23:08;;;;;;;18.00;11.93;;;;;;;7.58;40.61;101021.81;5003499;28;20565;-74
2022/03/25 05:25:34;;;;;;;14.00;10.68;;;;;;;7.68;40.87;101024.66;5002201;28;20054;-74
2022/03/25 05:28:00;;;;;;;24.58;10.35;;;;;;;7.05;41.67;101010.19;5001127;28;20418;-73
2022/03/25 05:30:31;;;;;;;18.98;10.77;;;;;;;7.23;41.36;100997.53;5001380;28;20026;-72
2022/03/25 05:32:58;;;;;;;19.67;11.70;;;;;;;7.38;41.19;100995.28;5002480;28;20120;-73
2022/03/25 05:35:26;;;;;;;20.70;13.13;;;;;;;7.60;41.06;101025.34;5001057;28;20062;-73
2022/03/25 05:37:52;;;;;;;23.75;12.55;;;;;;;6.81;42.09;101011.31;5003653;28;20034;-73
2022/03/25 05:40:20;;;;;;;19.50;13.95;;;;;;;6.95;42.40;101006.44;4997239;28;20053;-73
2022/03/25 05:42:46;;;;;;;21.83;13.55;;;;;;;7.85;40.92;101023.28;5011609;28;20071;-74
2022/03/25 05:45:12;;;;;;;26.70;15.18;;;;;;;8.66;39.53;101037.97;5002546;28;20042;-77
2022/03/25 05:47:39;;;;;;;21.15;12.50;;;;;;;8.68;39.32;101027.50;5002402;28;20080;-78
2022/03/25 05:50:07;;;;;;;33.15;14.80;;;;;;;9.14;38.15;101002.13;5002367;28;20042;-77
2022/03/25 05:52:33;;;;;;;25.10;13.57;;;;;;;8.53;39.36;101014.19;5006736;28;20045;-73
2022/03/25 05:54:59;;;;;;;20.75;13.90;;;;;;;8.31;39.60;101020.69;5006328;28;20834;-79
2022/03/25 05:57:25;;;;;;;32.28;14.52;;;;;;;8.85;38.80;101033.94;5005864;28;20470;-81
2022/03/25 05:59:59;;;;;;;24.73;15.07;;;;;;;9.37;38.01;101022.53;5011948;28;20042;-82
2022/03/25 06:02:31;;;;;;;24.70;16.17;;;;;;;9.54;37.81;101023.66;5006606;28;20852;-85
2022/03/25 06:05:11;;;;;;;21.00;13.57;;;;;;;9.20;38.73;101020.53;4999805;28;20129;-81
2022/03/25 06:07:51;;;;;;;21.50;13.60;;;;;;;9.66;37.09;101029.06;5006799;28;20133;-83
2022/03/25 06:10:28;;;;;;;24.75;14.18;;;;;;;10.03;35.94;101028.66;5016162;28;20045;-76
2022/03/25 06:12:57;;;;;;;33.40;15.10;;;;;;;9.56;36.96;101005.34;5012854;28;20030;-79
2022/03/25 06:15:31;;;;;;;24.10;12.95;;;;;;;9.52;37.08;101065.53;5009245;28;20022;-79
2022/03/25 06:17:56;;;;;;;25.77;13.53;;;;;;;9.55;37.20;101016.66;5001222;28;20049;-78
2022/03/25 06:20:23;;;;;;;20.52;13.02;;;;;;;9.70;36.89;101032.59;5006222;28;20486;-78
2022/03/25 06:22:49;;;;;;;22.85;12.85;;;;;;;9.45;36.93;101020.91;4989337;28;20111;-81
2022/03/25 06:25:16;;;;;;;21.02;12.25;;;;;;;9.14;37.68;101025.69;5007644;28;20038;-80
2022/03/25 06:28:04;;;;;;;23.88;13.63;;;;;;;9.39;37.69;101037.41;5007993;28;20026;-78
2022/03/25 06:30:35;;;;;;;22.95;11.77;;;;;;;9.50;37.27;101021.84;5002831;28;20099;-80
2022/03/25 06:33:09;;;;;;;22.80;11.75;;;;;;;9.64;37.03;101022.91;5005483;28;20393;-78
2022/03/25 06:35:38;;;;;;;18.27;11.13;;;;;;;9.68;37.25;101021.22;5002415;28;20470;-81
2022/03/25 06:38:05;;;;;;;23.60;12.02;;;;;;;9.82;36.34;101017.03;5006633;28;20042;-83
2022/03/25 06:40:31;;;;;;;22.58;12.25;;;;;;;9.73;36.76;101037.88;5006859;28;20113;-80
2022/03/25 06:42:57;;;;;;;14.48;10.70;;;;;;;9.68;36.97;101035.19;5005849;28;20019;-77
2022/03/25 06:45:24;;;;;;;19.35;12.75;;;;;;;9.97;36.32;101046.91;5005939;28;20057;-80
2022/03/25 06:47:51;;;;;;;33.53;13.13;;;;;;;9.52;36.91;101028.84;5005317;28;20038;-81
2022/03/25 06:50:19;;;;;;;21.98;13.45;;;;;;;9.79;36.84;101021.38;5007578;28;20073;-83
2022/03/25 06:52:46;;;;;;;24.45;11.35;;;;;;;9.65;36.43;101035.16;5009169;28;20042;-82
2022/03/25 06:55:13;;;;;;;19.95;12.55;;;;;;;9.71;36.79;101042.22;5011536;28;20060;-84
2022/03/25 06:57:40;;;;;;;24.13;12.45;;;;;;;9.85;36.27;101035.41;5012575;28;20044;-85
2022/03/25 07:00:13;;;;;;;33.47;12.13;;;;;;;9.73;37.18;101049.22;5010454;28;20474;-77
2022/03/25 07:02:47;;;;;;;23.00;13.05;;;;;;;9.88;36.26;101035.47;5004562;28;20363;-82
2022/03/25 07:05:24;;;;;;;36.53;13.70;;;;;;;9.68;36.41;100987.16;5009511;28;20042;-79
2022/03/25 07:08:01;;;;;;;21.17;13.45;;;;;;;10.31;36.20;101075.34;5010008;28;20046;-86
2022/03/25 07:10:29;;;;;;;21.02;13.82;;;;;;;10.12;36.14;101040.13;5014004;28;20066;-82
2022/03/25 07:12:55;;;;;;;27.40;15.18;;;;;;;9.80;36.57;101063.31;4992673;28;20045;-82
2022/03/25 07:15:24;;;;;;;19.27;12.52;;;;;;;9.62;36.41;101063.94;5011267;28;20022;-76
2022/03/25 07:17:52;;;;;;;21.38;13.85;;;;;;;10.08;35.92;101079.41;5011876;28;20049;-84
2022/03/25 07:20:19;;;;;;;25.33;13.50;;;;;;;9.55;36.13;101038.50;5004791;28;20061;-82
2022/03/25 07:22:47;;;;;;;16.85;13.38;;;;;;;9.50;36.33;101035.84;5006956;28;20125;-82
2022/03/25 07:25:15;;;;;;;27.52;14.15;;;;;;;9.72;36.35;101041.38;5005335;28;20157;-80
2022/03/25 07:27:44;;;;;;;18.98;13.45;;;;;;;9.67;36.57;101029.97;5008436;28;20028;-83
2022/03/25 07:30:12;;;;;;;22.17;13.13;;;;;;;9.36;36.15;101034.72;5011181;28;20474;-74
2022/03/25 07:32:37;;;;;;;24.00;14.88;;;;;;;9.65;36.46;101069.22;5010005;28;20050;-77
2022/03/25 07:35:04;;;;;;;22.33;13.55;;;;;;;10.11;35.25;101072.47;5023280;28;20042;-80
2022/03/25 07:37:30;;;;;;;21.35;12.00;;;;;;;10.17;35.28;101060.28;5009565;28;20066;-83
2022/03/25 07:39:59;;;;;;;29.85;12.30;;;;;;;10.25;35.24;101051.63;5007934;28;20706;-80
2022/03/25 07:42:25;;;;;;;29.35;13.80;;;;;;;10.38;34.60;101081.56;5009103;28;20146;-76
2022/03/25 07:44:51;;;;;;;38.72;14.93;;;;;;;10.42;34.38;101077.22;5007165;28;20155;-83
2022/03/25 07:47:19;;;;;;;24.45;12.77;;;;;;;10.68;34.13;101067.91;5007003;28;20050;-84
2022/03/25 07:49:45;;;;;;;22.55;14.00;;;;;;;10.50;34.04;101026.59;5007028;28;20043;-84
2022/03/25 07:52:11;;;;;;;22.88;14.63;;;;;;;10.76;33.78;101054.84;5009007;28;20057;-79
2022/03/25 07:54:38;;;;;;;28.08;13.93;;;;;;;10.61;33.60;101028.47;5004174;28;20037;-76
2022/03/25 07:57:04;;;;;;;18.25;12.68;;;;;;;10.87;33.68;101049.69;5001901;28;20117;-74
2022/03/25 07:59:30;;;;;;;26.40;13.32;;;;;;;10.79;33.55;101049.59;5015261;28;20557;-76
2022/03/25 08:01:56;;;;;;;18.00;13.40;;;;;;;10.93;33.67;101012.97;5017496;28;20056;-77
2022/03/25 08:04:24;;;;;;;28.63;15.38;;;;;;;10.88;33.27;101048.81;5003707;28;20142;-72
2022/03/25 08:06:52;;;;;;;22.45;14.75;;;;;;;10.52;33.71;101016.13;5004615;28;20542;-75
2022/03/25 08:09:18;;;;;;;19.65;14.45;;;;;;;10.34;34.45;101043.03;5005881;28;20038;-76
2022/03/25 08:11:46;;;;;;;28.27;16.55;;;;;;;10.75;33.62;101039.97;5002183;28;20363;-74
2022/03/25 08:14:13;;;;;;;19.70;13.40;;;;;;;10.85;33.38;101002.41;4999814;28;20107;-75
2022/03/25 08:16:39;;;;;;;24.63;14.55;;;;;;;11.09;33.03;101021.84;5002532;28;20057;-80
2022/03/25 08:19:05;;;;;;;22.77;15.18;;;;;;;11.30;33.15;101040.41;5000434;28;20431;-74
2022/03/25 08:21:31;;;;;;;25.27;14.80;;;;;;;11.16;33.27;101016.66;5002226;28;20038;-77
2022/03/25 08:29:25;;;;;;;26.00;15.95;;;;;;;12.04;32.14;101028.59;5000078;28;20049;-73
2022/03/25 08:31:51;;;;;;;24.02;14.23;;;;;;;12.17;32.29;101037.38;5001000;28;20038;-72
2022/03/25 08:34:17;;;;;;;25.27;14.02;;;;;;;12.70;32.00;101006.81;4999894;28;20038;-74
2022/03/25 08:36:44;;;;;;;28.00;21.55;;;;;;;12.97;32.38;101012.94;4993914;28;20030;-73
2022/03/25 08:39:10;;;;;;;30.33;21.33;;;;;;;12.91;32.81;101018.25;4999353;28;20085;-72
2022/03/25 08:41:35;;;;;;;28.25;16.85;;;;;;;11.78;32.07;100998.66;4998594;28;20885;-72
2022/03/25 08:44:01;;;;;;;34.75;23.98;;;;;;;13.37;35.08;101011.22;4999847;28;20132;-73
2022/03/25 08:46:27;;;;;;;28.55;19.83;;;;;;;13.12;31.12;100997.16;5000606;28;20042;-73
2022/03/25 08:48:52;;;;;;;35.97;14.90;;;;;;;13.15;30.01;100989.22;4999525;28;20344;-73
2022/03/25 08:51:18;;;;;;;31.02;22.30;;;;;;;14.02;30.69;101003.06;4998095;28;20030;-73
2022/03/25 08:53:45;;;;;;;22.67;17.40;;;;;;;13.07;31.05;101010.31;4998955;28;20046;-73
2022/03/25 08:56:11;;;;;;;18.95;13.88;;;;;;;11.84;31.07;100985.50;4998406;28;20478;-73
2022/03/25 08:58:36;;;;;;;21.45;14.95;;;;;;;15.98;27.33;101004.06;4999261;28;20124;-73
2022/03/25 09:01:03;;;;;;;28.00;20.10;;;;;;;14.26;33.69;100984.47;5003568;28;20026;-74
2022/03/25 09:03:29;;;;;;;22.20;17.25;;;;;;;14.09;30.26;100976.66;5010792;28;20073;-74
2022/03/25 09:05:55;;;;;;;28.13;18.35;;;;;;;14.36;31.26;100991.44;4997612;28;20049;-75
2022/03/25 09:08:21;;;;;;;31.75;15.20;;;;;;;14.02;30.02;101009.22;5000886;28;20458;-73
2022/03/25 09:10:47;;;;;;;22.63;14.32;;;;;;;13.36;29.45;101001.53;5000734;28;20052;-80
2022/03/25 09:13:13;;;;;;;22.25;14.13;;;;;;;12.74;29.86;100974.34;5000399;28;20042;-79
2022/03/25 09:15:38;;;;;;;24.55;12.18;;;;;;;13.06;29.74;101007.69;4999911;28;20024;-81
2022/03/25 09:18:05;;;;;;;19.10;12.57;;;;;;;12.85;29.77;100987.47;5000855;28;20061;-79
2022/03/25 09:20:31;;;;;;;20.23;12.93;;;;;;;12.86;29.93;100961.16;5002528;28;20075;-78
2022/03/25 09:22:57;;;;;;;21.02;12.77;;;;;;;12.39;29.70;100995.38;5005990;28;20076;-83
2022/03/25 09:25:24;;;;;;;29.08;13.85;;;;;;;12.13;30.13;100956.72;5005361;28;20118;-85
2022/03/25 09:27:50;;;;;;;20.90;13.27;;;;;;;12.54;30.06;100948.00;5005926;28;20029;-83
2022/03/25 09:30:16;;;;;;;21.38;13.63;;;;;;;12.84;29.89;100962.03;5005102;28;20028;-82
2022/03/25 09:32:42;;;;;;;29.58;14.23;;;;;;;12.91;29.70;100971.69;5003269;28;20545;-81
2022/03/25 09:35:11;;;;;;;23.98;12.63;;;;;;;13.13;29.92;100988.34;5002766;28;20046;-84
2022/03/25 09:37:47;;;;;;;24.15;13.68;;;;;;;12.98;29.71;100983.09;5004569;28;20054;-74
2022/03/25 09:40:24;;;;;;;25.67;13.35;;;;;;;12.84;29.42;100949.75;5002080;28;20046;-74
2022/03/25 09:42:51;;;;;;;17.20;11.77;;;;;;;13.17;29.31;100966.38;4985924;28;20112;-81
2022/03/25 09:45:19;;;;;;;16.65;11.07;;;;;;;12.72;29.06;100954.16;5000475;28;20041;-77
2022/03/25 09:47:47;;;;;;;21.08;11.15;;;;;;;13.02;29.34;100932.19;5003699;28;20073;-79
2022/03/25 09:50:21;;;;;;;21.20;13.05;;;;;;;13.24;28.65;100976.03;5003383;28;20060;-81
2022/03/25 09:52:47;;;;;;;40.38;13.50;;;;;;;13.16;28.69;100938.28;5000593;28;20058;-80
2022/03/25 09:55:13;;;;;;;20.95;13.48;;;;;;;13.06;28.30;100963.78;5002877;28;20045;-81
2022/03/25 09:57:40;;;;;;;19.30;11.98;;;;;;;13.24;28.45;100954.09;4999865;28;20091;-81
2022/03/25 10:00:08;;;;;;;18.73;13.55;;;;;;;13.18;28.77;100930.38;5000571;28;20045;-80
2022/03/25 10:02:33;;;;;;;15.98;10.48;;;;;;;13.09;28.66;100921.63;5000919;28;20480;-82
2022/03/25 10:04:59;;;;;;;24.50;12.27;;;;;;;13.15;28.99;100936.53;5002029;28;20061;-82
2022/03/25 10:07:34;;;;;;;17.02;11.73;;;;;;;13.08;29.05;100924.25;5000459;28;20550;-81
2022/03/25 10:10:19;;;;;;;25.83;11.25;;;;;;;13.34;27.91;100913.66;5004166;28;20091;-82
2022/03/25 10:12:50;;;;;;;27.23;13.85;;;;;;;13.97;28.13;100960.88;5004341;28;20117;-81
2022/03/25 10:15:28;;;;;;;17.77;10.65;;;;;;;13.96;27.25;100955.63;5003970;28;20045;-80
2022/03/25 10:17:56;;;;;;;14.88;10.30;;;;;;;13.84;27.55;100927.53;5002811;28;20038;-80
2022/03/25 10:20:34;;;;;;;17.10;10.82;;;;;;;14.03;27.39;100944.16;5002233;28;20041;-80
2022/03/25 10:23:09;;;;;;;15.98;10.35;;;;;;;13.87;27.53;100945.97;5007432;28;20418;-77
2022/03/25 10:25:40;;;;;;;21.20;11.75;;;;;;;13.91;27.63;100935.41;5008878;28;20042;-81
2022/03/25 10:28:19;;;;;;;14.57;10.43;;;;;;;14.38;27.43;100920.16;4996023;28;20060;-75
2022/03/25 10:30:51;;;;;;;18.00;9.82;;;;;;;14.04;27.53;100898.38;5016124;28;20378;-75
2022/03/25 10:33:26;;;;;;;16.08;11.30;;;;;;;14.34;27.22;100900.81;5001936;28;20042;-73
2022/03/25 10:36:09;;;;;;;22.55;11.75;;;;;;;14.00;27.74;100900.19;4995538;28;20527;-73
2022/03/25 10:38:54;;;;;;;19.67;10.73;;;;;;;15.05;26.87;100931.91;5000382;28;20050;-75
2022/03/25 10:41:23;;;;;;;14.60;11.48;;;;;;;15.00;25.96;100925.81;5001431;28;20046;-74
2022/03/25 10:43:54;;;;;;;16.00;11.73;;;;;;;15.44;26.59;100892.72;5004179;28;20189;-76
2022/03/25 10:46:46;;;;;;;21.20;11.13;;;;;;;15.58;25.80;100892.53;5000372;28;20428;-75
2022/03/25 10:49:18;;;;;;;17.40;10.05;;;;;;;15.68;26.23;100925.91;4995690;28;20076;-75
2022/03/25 10:51:56;;;;;;;15.18;9.77;;;;;;;16.70;25.22;100897.94;5016177;28;20107;-75
2022/03/25 10:54:25;;;;;;;19.75;12.77;;;;;;;16.61;25.78;100852.16;5002657;28;20038;-75
2022/03/25 10:56:53;;;;;;;15.35;10.50;;;;;;;17.20;24.64;100890.84;5000902;28;20054;-75
2022/03/25 10:59:36;;;;;;;19.27;10.73;;;;;;;16.64;23.40;100869.78;5002916;28;20096;-75
2022/03/25 11:02:07;;;;;;;16.38;9.65;;;;;;;16.03;24.27;100893.69;5002806;28;20397;-75
2022/03/25 11:04:34;;;;;;;13.13;9.73;;;;;;;15.47;24.91;100868.84;5004981;28;20033;-75
2022/03/25 11:07:03;;;;;;;16.05;11.07;;;;;;;16.25;24.90;100843.06;5003552;28;20441;-75
2022/03/25 11:09:35;;;;;;;13.88;10.10;;;;;;;17.03;24.30;100891.19;5001012;28;20053;-74
2022/03/25 11:12:02;;;;;;;17.73;11.15;;;;;;;15.80;25.37;100856.09;4982886;28;20045;-74
2022/03/25 11:14:28;;;;;;;14.20;10.18;;;;;;;16.57;24.81;100873.44;5001449;28;20489;-74
2022/03/25 11:16:59;;;;;;;17.10;10.07;;;;;;;16.16;24.70;100862.63;4983695;28;20042;-73
2022/03/25 11:19:26;;;;;;;25.23;12.23;;;;;;;16.25;24.73;100846.59;4999253;28;20042;-74
2022/03/25 11:21:59;;;;;;;14.73;10.35;;;;;;;15.85;24.53;100864.88;4983314;28;20036;-74
2022/03/25 11:24:31;;;;;;;;;;;;;;;15.44;25.72;100890.06;5000546;28;20099;-74